Time,TemperatureF,DewpointF,PressureIn,WindDirection,WindDirectionDegrees,WindSpeedMPH,WindSpeedGustMPH,Humidity,HourlyPrecipIn,Conditions,Clouds,dailyrainin,SoftwareType,DateUTC
2015-05-05 00:08:00,62.8,48.7,30.21,SW,225,1.1,-999.0,60,-99.99,,,0.00,Acu-Link.com,2015-05-05 04:08:00,
2015-05-05 00:23:00,63.0,48.9,30.21,South,180,2.7,-999.0,60,-99.99,,,0.00,Acu-Link.com,2015-05-05 04:23:00,
2015-05-05 00:38:00,62.8,48.7,30.21,SSE,157,1.6,-999.0,60,-99.99,,,0.00,Acu-Link.com,2015-05-05 04:38:00,
2015-05-05 00:53:00,62.4,48.8,30.21,SSE,157,2.0,-999.0,61,-99.99,,,0.00,Acu-Link.com,2015-05-05 04:53:00,
2015-05-05 01:09:00,61.7,48.5,30.21,SSW,202,1.6,-999.0,62,-99.99,,,0.00,Acu-Link.com,2015-05-05 05:09:00,
2015-05-05 01:24:00,61.2,48.5,30.21,SW,225,1.1,-999.0,63,-99.99,,,0.00,Acu-Link.com,2015-05-05 05:24:00,
2015-05-05 01:39:00,60.8,48.5,30.20,WSW,247,0.0,-999.0,64,-99.99,,,0.00,Acu-Link.com,2015-05-05 05:39:00,
2015-05-05 01:54:00,60.3,48.0,30.20,SSW,202,0.0,-999.0,64,-99.99,,,0.00,Acu-Link.com,2015-05-05 05:54:00,
2015-05-05 02:10:00,59.7,47.9,30.20,WSW,247,0.0,-999.0,65,-99.99,,,0.00,Acu-Link.com,2015-05-05 06:10:00,
2015-05-05 02:25:00,60.3,48.4,30.19,SW,225,3.1,-999.0,65,-99.99,,,0.00,Acu-Link.com,2015-05-05 06:25:00,
2015-05-05 02:40:00,61.2,48.9,30.19,SW,225,0.0,-999.0,64,-99.99,,,0.00,Acu-Link.com,2015-05-05 06:40:00,
2015-05-05 02:55:00,62.6,49.8,30.18,WSW,247,2.7,-999.0,63,-99.99,,,0.00,Acu-Link.com,2015-05-05 06:55:00,
2015-05-05 03:10:00,63.0,50.2,30.19,West,270,3.6,-999.0,63,-99.99,,,0.00,Acu-Link.com,2015-05-05 07:10:00,
2015-05-05 03:25:00,63.1,50.3,30.18,ESE,112,1.1,-999.0,63,-99.99,,,0.00,Acu-Link.com,2015-05-05 07:25:00,
2015-05-05 03:40:00,63.3,50.5,30.18,West,270,2.0,-999.0,63,-99.99,,,0.00,Acu-Link.com,2015-05-05 07:40:00,
2015-05-05 03:56:00,62.8,50.4,30.18,SW,225,1.6,-999.0,64,-99.99,,,0.00,Acu-Link.com,2015-05-05 07:56:00,
2015-05-05 04:11:00,63.3,50.9,30.18,SW,225,2.0,-999.0,64,-99.99,,,0.00,Acu-Link.com,2015-05-05 08:11:00,
2015-05-05 04:26:00,63.3,50.9,30.18,WSW,247,2.7,-999.0,64,-99.99,,,0.00,Acu-Link.com,2015-05-05 08:26:00,
2015-05-05 04:41:00,63.3,50.9,30.18,WSW,247,3.6,-999.0,64,-99.99,,,0.00,Acu-Link.com,2015-05-05 08:41:00,
2015-05-05 04:56:00,63.3,51.3,30.18,WSW,247,6.3,-999.0,65,-99.99,,,0.00,Acu-Link.com,2015-05-05 08:56:00,
2015-05-05 05:11:00,62.8,51.2,30.18,NE,45,2.7,-999.0,66,-99.99,,,0.00,Acu-Link.com,2015-05-05 09:11:00,
2015-05-05 05:27:00,63.1,51.6,30.18,SW,225,6.3,-999.0,66,-99.99,,,0.00,Acu-Link.com,2015-05-05 09:27:00,
2015-05-05 05:42:00,63.3,51.8,30.18,SW,225,4.0,-999.0,66,-99.99,,,0.00,Acu-Link.com,2015-05-05 09:42:00,
2015-05-05 05:57:00,63.5,51.9,30.18,SW,225,1.1,-999.0,66,-99.99,,,0.00,Acu-Link.com,2015-05-05 09:57:00,
2015-05-05 06:12:00,63.3,52.2,30.19,WNW,292,1.6,-999.0,67,-99.99,,,0.00,Acu-Link.com,2015-05-05 10:12:00,
2015-05-05 06:27:00,63.3,52.2,30.19,West,270,4.7,-999.0,67,-99.99,,,0.00,Acu-Link.com,2015-05-05 10:27:00,
2015-05-05 06:42:00,63.3,52.6,30.20,SW,225,1.6,-999.0,68,-99.99,,,0.00,Acu-Link.com,2015-05-05 10:42:00,